createdAt,value
2023-02-16T11:46:21.348Z,33.75
2023-02-16T11:51:34.716Z,33.00
2023-02-16T11:56:36.765Z,34.03
2023-02-16T12:01:44.520Z,32.60
2023-02-16T12:07:08.838Z,31.58
2023-02-16T12:12:49.413Z,33.03
2023-02-16T12:18:19.486Z,31.10
2023-02-16T12:23:47.903Z,29.35
2023-02-16T12:29:03.262Z,28.88
2023-02-16T12:34:28.500Z,27.30
2023-02-16T12:39:55.256Z,27.00
2023-02-16T12:45:03.801Z,26.40
2023-02-16T12:50:30.507Z,25.33
2023-02-16T12:55:48.063Z,22.98
2023-02-16T13:00:56.033Z,22.88
2023-02-16T13:06:14.271Z,22.02
2023-02-16T13:11:28.359Z,19.88
2023-02-16T13:16:51.832Z,20.50
2023-02-16T13:21:53.875Z,21.55
2023-02-16T13:26:55.876Z,20.40
2023-02-16T13:32:23.050Z,21.02
2023-02-16T13:38:01.558Z,21.77
2023-02-16T13:43:34.976Z,21.20
2023-02-16T13:48:46.128Z,20.40
2023-02-16T13:53:59.964Z,20.50
2023-02-16T13:59:17.396Z,19.48
2023-02-16T14:04:22.234Z,18.52
2023-02-16T14:09:36.108Z,19.48
2023-02-16T14:14:53.442Z,19.10
2023-02-16T14:20:06.557Z,17.20
2023-02-16T14:25:23.515Z,19.55
2023-02-16T14:30:44.447Z,18.02
2023-02-16T14:35:58.524Z,17.38
2023-02-16T14:41:01.852Z,18.60
2023-02-16T14:46:16.869Z,18.35
2023-02-16T14:51:34.057Z,18.45
2023-02-16T14:56:42.818Z,18.13
2023-02-16T15:01:46.040Z,18.52
2023-02-16T15:06:48.343Z,17.38
2023-02-16T15:12:14.847Z,18.40
2023-02-16T15:17:36.473Z,18.05
2023-02-16T15:22:44.205Z,17.83
2023-02-16T15:28:26.046Z,17.55
2023-02-16T15:33:38.265Z,17.02
2023-02-16T15:39:01.675Z,18.00
2023-02-16T15:44:06.024Z,19.10
2023-02-16T15:49:21.509Z,20.35
2023-02-16T15:54:29.148Z,21.05
2023-02-16T15:59:43.073Z,22.80
2023-02-16T16:04:54.894Z,21.30
2023-02-16T16:09:58.131Z,22.27
2023-02-16T16:15:01.765Z,22.60
2023-02-16T16:20:29.168Z,21.10
2023-02-16T16:25:34.353Z,24.35
2023-02-16T16:30:43.689Z,24.52
2023-02-16T16:35:50.405Z,24.52
2023-02-16T16:40:55.485Z,24.85
2023-02-16T16:46:13.944Z,26.80
2023-02-16T16:51:23.142Z,26.77
2023-02-16T16:56:25.504Z,25.58
2023-02-16T17:01:28.666Z,25.45
2023-02-16T17:06:30.778Z,26.15
2023-02-16T17:11:35.690Z,29.75
2023-02-16T17:16:41.557Z,27.05
2023-02-16T17:21:44.303Z,25.08
2023-02-16T17:26:46.548Z,25.48
2023-02-16T17:31:50.527Z,24.08
2023-02-16T17:36:52.769Z,25.58
2023-02-16T17:41:55.142Z,24.67
2023-02-16T17:46:57.309Z,24.67
2023-02-16T17:51:59.452Z,25.83
2023-02-16T17:57:01.954Z,27.23
2023-02-16T18:02:04.187Z,26.30
2023-02-16T18:07:13.005Z,27.88
2023-02-16T18:12:15.225Z,25.42
2023-02-16T18:17:17.801Z,28.58
2023-02-16T18:22:19.840Z,26.67
2023-02-16T18:27:21.983Z,28.70
2023-02-16T18:32:24.108Z,30.33
2023-02-16T18:37:26.190Z,30.15
2023-02-16T18:42:28.260Z,29.25
2023-02-16T18:47:30.676Z,33.10
2023-02-16T18:52:32.701Z,31.90
2023-02-16T18:57:36.166Z,32.50
2023-02-16T19:02:39.130Z,34.13
2023-02-16T19:07:41.188Z,36.20
2023-02-16T19:12:43.157Z,34.75
2023-02-16T19:17:45.224Z,34.13
2023-02-16T19:22:48.484Z,35.50
2023-02-16T19:27:50.595Z,35.28
2023-02-16T19:32:52.690Z,35.65
2023-02-16T19:37:55.750Z,35.80
2023-02-16T19:42:57.821Z,34.25
2023-02-16T19:47:59.849Z,37.15
2023-02-16T19:53:01.854Z,35.30
2023-02-16T19:58:03.914Z,37.15
2023-02-16T20:03:06.632Z,36.97
2023-02-16T20:08:08.730Z,37.60
2023-02-16T20:13:11.165Z,36.22
2023-02-16T20:18:13.202Z,36.58
2023-02-16T20:23:15.221Z,37.80
2023-02-16T20:28:17.252Z,36.88
2023-02-16T20:33:20.251Z,36.95
2023-02-16T20:38:22.298Z,36.92
2023-02-16T20:43:24.470Z,37.78
2023-02-16T20:48:26.486Z,36.40
2023-02-16T20:53:29.442Z,36.53
2023-02-16T20:58:32.046Z,37.95
2023-02-16T21:03:34.095Z,37.30
2023-02-16T21:08:36.414Z,38.13
2023-02-16T21:13:39.628Z,36.20
2023-02-16T21:18:42.333Z,37.22
2023-02-16T21:23:47.900Z,37.17
2023-02-16T21:28:50.127Z,39.13
2023-02-16T21:33:53.277Z,37.70
2023-02-16T21:38:55.305Z,36.20
2023-02-16T21:44:03.672Z,37.42
2023-02-16T21:49:07.626Z,35.78
2023-02-16T21:54:13.819Z,34.83
2023-02-16T21:59:18.544Z,33.13
2023-02-16T22:04:22.625Z,28.88
2023-02-16T22:09:24.957Z,20.83
2023-02-16T22:14:27.030Z,16.75
2023-02-16T22:19:29.134Z,14.25
2023-02-16T22:24:31.210Z,14.20
2023-02-16T22:29:33.313Z,14.50
2023-02-16T22:34:36.728Z,12.90
2023-02-16T22:39:38.846Z,11.23
2023-02-16T22:44:41.219Z,11.50
2023-02-16T22:49:43.276Z,10.18
2023-02-16T22:54:45.360Z,9.27
2023-02-16T22:59:47.423Z,9.45
2023-02-16T23:04:49.417Z,9.18
2023-02-16T23:09:51.506Z,9.63
2023-02-16T23:14:53.802Z,10.35
2023-02-16T23:19:55.834Z,10.90
2023-02-16T23:25:16.393Z,9.05
2023-02-16T23:30:18.804Z,9.40
2023-02-16T23:35:21.126Z,8.25
2023-02-16T23:40:23.143Z,8.15
2023-02-16T23:45:25.296Z,8.55
2023-02-16T23:50:27.438Z,8.00
2023-02-16T23:55:29.554Z,8.27
